Disclaimer   
PNR Super Search
 ♦ 
×
HashTag:
PNR Number:
Train Type:
Train:
From Station:
To Station:
Train Class:
2SSLCCEx3AFC2A1A3E
WL Quota:
DOJ From:
DOJ To:
Blogger:
Traveller:
Predictor:
Prediction:
WLRACConf
Stamper:
Final:
WLRACConfVoidQ-ConfUnStamped
Status:
Reaction:

Search
  Go  
 
Sun Apr 26, 2015 10:22:07 ISTHomeTrainsΣChainsAtlasPNRForumGalleryNewsFAQTripsMembersLoginFeedback
Sun Apr 26, 2015 10:22:07 IST
Post PNRPNR StatusModify Search

Ticket PNR Status Inquiry - PNR: 810-xxxxxxx (E-Ticket)

OLD STATUS

Status Last Updated on: May 21 2012 (7:50PM) IST

Date of Journey: Tue May 22, 2012   Class: Sleeper - SL   (Total Seats available for this Class/Quota: Avbl >183)
Passenger 1: SX1,33/Coach Position:11 (Booking Status: W/L 43,GNWL)
Passenger 2: SX1,36/Coach Position:11 (Booking Status: W/L 44,GNWL)
Passenger 3: SX1,34/Coach Position:11 (Booking Status: W/L 45,GNWL)
Passenger 4: SX1,35/Coach Position:11 (Booking Status: W/L 46,GNWL)
Passenger 5: SX1,37/Coach Position:11 (Booking Status: W/L 47,GNWL)
Passenger 6: SX1,38/Coach Position:11 (Booking Status: W/L 48,GNWL)
Chart PREPARED

Mumbai Bandra Terminus- Dehradun Express/19019

Travel Time: 34h 46m    85 halts    Distance: 1408 km    Avg Speed: 40 km/hr
Peak Observed Speed: n/a
Type: Mail/Express
Zone: WR/Western
Departs @ 04:04 (Avg 6m late)
Platform# 1
SMTWTFS
NVS/Navsari 
Arrives @ 14:50 +1 night (Avg 38m late)
Platform# 1
SMTWTFS
HW/Haridwar Junction 

85 halts. 215 intermediate Stations between Navsari and Haridwar Junction

Show ALL intermediate Stations  Show Old Time-Table

#TrkCodeStation NameX/OArrivesAvgDepartsAvgHaltPFDay#KmSpeedElevZoneAddress
1/==/BDTSBandra Terminus  -00:05+011-222.637 WRMumbai 400050, Maharashtra
2/==/BVIBorivaliO  00:35+600:40+65m61-203.85019mWRMumbai - 400092, Maharashtra
3/==/BSRVasai Road  01:01+301:03+42m31-186.4747mWRVasai 401202, Maharashtra
4/==/PLGPalghar  01:35+1701:37+212m11-146.85219mWRPalghar, Maharashtra
5/==/DRDDahanu RoadX  02:15+1202:17+132m11-113.99112mWRDahanu, Maharashtra
6/==/VAPIVapi  02:49+1502:51+162m11-65.35427mWRVapi, Gujarat
7/==/BLValsadX  03:20+803:25+115m11-39.15715mWRValsad, Gujarat
8/==/BIMBilimora JunctionX  03:44+703:46+72m11-21.27911mWRBilimora, Gujarat
9/==/NVSNavsari»X  04:02+604:04+62m110.04914mWRNavsari, Gujarat
10/==/STSurat  04:40+004:45+25m1129.672 WRSurat 395001, Gujarat
11/==/KSBKosamba Junction05:11+505:13+52m--161.013930mWRKosamba, Gujarat
12/==/AKVAnkleshwar Junction  05:21+1305:23+132m1179.643 WRAnkleshwar, Gujarat
13/==/BHBharuch JunctionX  05:36+1305:38+132m3188.987 WRBharuch, Gujarat
14/==/MYGMiyagam Karjan  06:06+1406:08+142m21129.65629mWRKarjan, Gujarat
15/==/BRCVadodara Junction  06:40+1506:50+1610m21159.46736mWRVadodara 390005, Gujarat
16/==/SMLASamlaya Junction  07:14+2407:16+242m21186.067 WRVadodara, Gujarat
17/==/CPNChampaner Road JunctionX  07:26+2307:28+232m21197.254 WRPanchmahal, Gujarat
18/==/DRLDerolX  07:42+2107:44+212m21209.77681mWRKalol, Gujarat
19/==/KRSAKharsaliyaX  07:54+2207:56+212m21222.427107mWRPanchmahal, Gujarat
20/==/GDAGodhra JunctionX  08:20+1008:25+105m21233.358122mWRGodhra, Gujarat
21/==/SATSant RoadX  08:46+1808:47+181m21253.765169mWROrwara, Gujarat
22/==/PPDPiplod Junction  08:58+2008:59+221m21265.568209mWRPiplod, Gujarat
23/==/LMKLimkheda  09:06+2509:08+292m21273.525205mWRLimkheda, Gujarat
24/==/MAMMangal MahudiXO  09:29+1909:30+191m21282.197248mWRDabhada, Gujarat
25/==/DHDDahodO  09:45+2609:50+265m21306.445313mWRDahod, Gujarat
26/==/BIOBordi  10:04+2410:05+241m--1317.068289mWRNational Highway 59, Gujarat
27/==/ANASAnas  10:12+2410:13+251m--1324.973288mWRMadhya Pradesh 389154 ?, Madhya Pradesh
28/==/MGNMeghnagar  10:25+2510:27+262m--1339.560317mWRJhabua, Madhya Pradesh
29/==/THDRThandla Road  10:35+2610:36+261m--1347.564 WRJhabua, Madhya Pradesh
30/==/PCNPanch Pipila  10:49+2510:50+251m--1361.452369mWRSH 39A, Madhya Pradesh
31/==/AGRAmargarh  11:01+2611:02+271m--1370.950410mWRSH 39A, Madhya Pradesh
32/==/BMIBamnia  11:07+2711:09+272m--1375.045392mWRBamnia, Madhya Pradesh
33/==/BOGBhairongarh  11:17+2611:18+271m--1381.065374mWRBhairongarh Railway Station, Madhya Pradesh
34/==/RTIRaoti  11:29+2811:30+291m--1392.954409mWRState Highway 39A, Madhya Pradesh
35/==/BILDBildiX  11:38+2911:39+301m--1400.060422mWRMadhya Pradesh, Madhya Pradesh
36/==/MRNMorwaniX  11:48+3011:49+311m--1409.121459mWRDantoda, Madhya Pradesh
37/==/RTMRatlam Junction  12:20+2112:40+2220m51419.849495mWRRatlam 457001, Madhya Pradesh
38/==/BODBangrodX  12:52+2512:53+251m--1429.655484mWRRatlam, Madhya Pradesh
39/==/RNHRunkhera  13:01+2613:02+271m--1437.057 WRDistrict Ujjain, Madhya Pradesh
40/==/KUHKhachrodX  13:13+2813:15+282m--1447.514 WRUjjain, Madhya Pradesh
41/==/NADNagda JunctionX  14:15-1114:25+210m11461.257468mWRNagda, Madhya Pradesh
42/==/MEPMahidpur Road  14:43+314:45+42m--1478.380493mWCRGogapur, Madhya Pradesh
43/==/LNRLuni RichhaX  14:53+614:55+52m--1488.961471mWCRAlote, Madhya Pradesh
44/==/VMAVikramgarh AlotX  15:08+315:10+42m21502.251 WCRKota Division, Madhya Pradesh
45/==/THURThuria  15:19+415:21+42m--1509.871 WCRMDR 45, Madhya Pradesh
46/==/CMUChau Mahla  15:33+515:35+72m21524.066426mWCRJhalawar, Rajasthan
47/==/SVASuwasraX  15:49+915:50+101m--1539.462450mWCRSuwasra, Madhya Pradesh
48/==/SGZShamgarh  16:03+1016:08+95m--1552.859463mWCRMandsaur, Madhya Pradesh
49/==/GOHGarothX  16:19+816:20+101m21563.772441mWCRMadhya Pradesh 458880, Madhya Pradesh
50/==/BWMBhawani MandiX  16:39+1016:41+142m--1586.358384mWCRBhawani Mandi, Madhya Pradesh
51/==/JHWJhalawar RoadX  16:58+1117:00+122m--1602.857361mWCRJhalawar City, Rajasthan
52/==/RMARamganj Mandi Junction  17:13+917:15+142m--1615.242 WCRRamganj Mandi, Rajasthan
53/==/MKXMorakXO  17:28+1017:30+122m--1624.268337mWCRMorak, Rajasthan
54/==/DARADara  17:43+1417:45+152m--1639.060354mWCRDara, Rajasthan
55/==/DKNTDakaniya TalavO  18:23+1418:25+172m11677.114278mWCRKota, Rajasthan
56/==/KOTAKota Junction  19:05-519:35+1830m11686.436256mWCRKota, Rajasthan
57|--|GQLGurlaX  19:44+2219:46+222m--1691.853251mWCRSH 33, Rajasthan
58/==/KPTNKeshorai PatanX  19:55+2219:57+222m--1699.886243mWCRSH 33, Rajasthan
59/==/LKELakheriX  20:30+2920:32+312m--1746.951 WCRBundi, Rajasthan
60/==/IDGIndargarh Sumerganj MandiX  20:45+3120:47+332m--1757.953247mWCRIndargarh, Rajasthan
61/==/SWMSawai Madhopur JunctionX  21:28+2521:30+282m--1794.179266mWCRSawai Madhopur, Rajasthan
62/==/MLZMalarnaX  21:53+2921:55+292m--1824.345236mWCRSawai Madhopur, Rajasthan
63/==/GGCGangapur CityO  22:40+2022:45+255m21858.089270mWCRGangapur, Rajasthan
64/==/SMBJShri Mahabirji  23:08+3123:10+322m--1892.147240mWCRKarauli, Rajasthan
65/==/HANHindaun City  23:23+2923:25+302m--1902.344230mWCRKarauli, Rajasthan
66/==/BXNBayana Junction  00:10+2400:15+235m--2935.257198mWCRBayana, Rajasthan
67/==/BTEBharatpur Junction  00:59+1201:00+351m--2977.225174mWCRBharatpur, Rajasthan
68/==/MTJMathura JunctionX  02:20+602:25+115m321010.775179mNCRMathura, Uttar Pradesh
69/==/KSVKosi Kalan  02:58+1503:00+162m121052.148189mNCRKosi Kalan, Uttar Pradesh